首页
METAR-TAF:

METAR-TAF

机场 :

Pittsfield Municipal Airport

皮茨菲尔德, 马萨诸塞州, 美国

纬度: 42-25-38N, 经度: 073-17-21W, 海拔: 364米

当前天气观测

该预报发布于1小时和9分钟前的20:54 UTC
风速8节,风向,有时为17节阵风,在西北北转东北之间变化
温度 17°C
湿度 42%
气压 1015 hPa
能見度: 16.1公里
散云层高于6500英尺

METAR: KPSF 302054Z AUTO 35008G17KT 320V020 10SM SCT065 17/04 A2996 RMK AO2 SLP131 T01720039 53003

时间: 18:03 (22:03 UTC)

预报

该预报发布于4小时和43分钟前的17:20 UTC
预报有效从30日的 18点(UTC)到 31日的 18点(UTC)
风速9节,风向北转西北,有时为16节阵风
能見度: 10公里
散云层高于5000英尺
从 30日的 2300点(UTC)
风速6节,风向北转西北
能見度: 10公里
少量云层高于20000英尺
从 31日的 0600点(UTC)
风速3节,风向多变
能見度: 10公里
少量云层高于20000英尺
从 31日的 1300点(UTC)
风速8节,风向西转西北
能見度: 10公里
少量云层高于12000英尺
散云层高于20000英尺

TAF: KPSF 301720Z 3018/3118 34009G16KT P6SM SCT050 FM302300 34006KT P6SM FEW200 FM310600 VRB03KT P6SM FEW200 FM311300 30008KT P6SM FEW120 SCT200

超过4000个机场的气象观测和天气预报(METAR&TAF报告)。

可查询的气象台以黄色和红色小点在地图上表示。

将鼠标移到小点上方,可查看气象台名称。

然后点击查看天气观测和预报。

如需切换地图:点击带黑十字的绿色按钮放大地图;点击带横线的绿色按钮缩小地图;或者点击绿色箭头查看邻近地区的地图。


METAR-TAF: